Time;durP1;ratioP1;P1;durP2;ratioP2;P2;SDS_P1;SDS_P2;PMS_P1;PMS_P2;Temp;Humidity;BMP_temperature;BMP_pressure;BME280_temperature;BME280_humidity;BME280_pressure;Samples;Min_cycle;Max_cycle;Signal;HPM_P1;HPM_P2
2021/07/28 00:00:52;;;;;;;2.35;1.42;;;;;;;24.53;48.37;100555.78;4952467;28;20066;-68
2021/07/28 00:03:18;;;;;;;3.40;1.90;;;;;;;24.52;48.39;100556.84;4954181;28;20074;-68
2021/07/28 00:05:43;;;;;;;4.45;2.17;;;;;;;24.52;48.78;100556.84;4954570;28;20396;-67
2021/07/28 00:08:09;;;;;;;2.95;1.90;;;;;;;24.53;48.55;100552.28;4954190;28;20042;-68
2021/07/28 00:10:34;;;;;;;4.90;2.20;;;;;;;24.52;48.77;100554.16;4939138;28;20043;-67
2021/07/28 00:13:00;;;;;;;3.20;1.65;;;;;;;24.53;48.49;100554.97;4957564;28;20042;-71
2021/07/28 00:15:25;;;;;;;3.15;1.83;;;;;;;24.52;48.38;100554.16;4953914;28;20035;-67
2021/07/28 00:17:53;;;;;;;4.03;2.38;;;;;;;24.52;48.60;100553.34;4957699;28;20046;-67
2021/07/28 00:25:29;;;;;;;3.50;1.90;;;;;;;24.51;48.72;100549.84;4939355;29;20074;-67
2021/07/28 00:27:55;;;;;;;2.50;1.75;;;;;;;24.51;48.50;100543.69;4957281;28;20067;-67
2021/07/28 00:30:20;;;;;;;2.60;1.80;;;;;;;24.49;48.65;100539.38;4950129;28;20472;-68
2021/07/28 00:32:46;;;;;;;3.72;1.80;;;;;;;24.49;48.69;100542.03;4942350;28;20047;-67
2021/07/28 00:35:11;;;;;;;3.30;2.05;;;;;;;24.50;48.48;100537.50;4953498;28;20034;-67
2021/07/28 00:37:37;;;;;;;2.58;1.70;;;;;;;24.49;48.80;100535.88;4954587;28;20039;-68
2021/07/28 00:40:06;;;;;;;4.85;1.98;;;;;;;24.48;48.34;100528.88;4954822;28;20040;-70
2021/07/28 00:42:32;;;;;;;2.95;1.65;;;;;;;24.49;48.67;100533.19;4955570;28;20043;-67
2021/07/28 00:44:57;;;;;;;3.13;1.80;;;;;;;24.49;48.65;100522.47;4954284;28;20460;-67
2021/07/28 00:47:22;;;;;;;3.85;2.15;;;;;;;24.48;48.79;100526.19;4959739;28;20034;-71
2021/07/28 00:49:48;;;;;;;2.30;1.55;;;;;;;24.49;48.41;100517.09;4958246;28;20062;-68
2021/07/28 00:52:14;;;;;;;4.00;1.90;;;;;;;24.47;48.38;100513.84;4960738;28;20066;-67
2021/07/28 00:54:41;;;;;;;3.72;2.17;;;;;;;24.47;48.82;100511.97;4957870;28;20110;-67
2021/07/28 00:57:08;;;;;;;4.20;2.10;;;;;;;24.47;48.57;100503.13;4958910;28;20035;-69
2021/07/28 00:59:33;;;;;;;3.38;1.75;;;;;;;24.47;48.57;100506.63;4959333;28;20035;-68
2021/07/28 01:01:58;;;;;;;2.60;1.35;;;;;;;24.46;48.64;100504.16;4955261;28;20042;-67
2021/07/28 01:04:25;;;;;;;2.97;1.80;;;;;;;24.47;48.78;100505.81;4960852;28;20035;-67
2021/07/28 01:06:50;;;;;;;2.70;1.70;;;;;;;24.46;48.51;100499.63;4937470;29;20039;-68
2021/07/28 01:09:16;;;;;;;2.55;1.83;;;;;;;24.45;48.31;100497.97;4957502;28;20031;-67
2021/07/28 01:11:41;;;;;;;2.88;1.60;;;;;;;24.45;48.65;100489.91;4940417;29;20042;-69
2021/07/28 01:14:07;;;;;;;2.60;1.40;;;;;;;24.46;48.64;100493.44;4941502;28;20122;-70
2021/07/28 01:16:37;;;;;;;2.47;1.60;;;;;;;24.45;48.47;100489.09;4959465;28;20031;-68
2021/07/28 01:19:07;;;;;;;3.75;1.70;;;;;;;24.44;48.47;100480.25;4957862;28;20039;-74
2021/07/28 01:21:33;;;;;;;2.53;1.52;;;;;;;24.45;48.67;100487.25;4953840;28;20050;-70
2021/07/28 01:23:59;;;;;;;2.85;1.70;;;;;;;24.45;48.66;100486.44;4940557;29;20039;-67
2021/07/28 01:26:27;;;;;;;2.78;1.75;;;;;;;24.44;48.54;100482.13;4956905;28;20117;-69
2021/07/28 01:28:53;;;;;;;3.10;1.60;;;;;;;24.44;48.77;100493.66;4957179;28;20039;-70
2021/07/28 01:31:22;;;;;;;2.70;1.52;;;;;;;24.44;48.72;100474.88;4953328;29;20130;-67
2021/07/28 01:33:48;;;;;;;5.00;1.42;;;;;;;24.44;48.56;100484.78;4960631;28;20049;-67
2021/07/28 01:36:23;;;;;;;3.15;1.60;;;;;;;24.43;48.68;100480.50;4957069;28;20040;-67
2021/07/28 01:38:50;;;;;;;3.55;1.90;;;;;;;24.42;48.56;100478.88;4960397;28;20110;-67
2021/07/28 01:41:15;;;;;;;2.38;1.45;;;;;;;24.41;48.69;100470.00;4956785;28;20077;-68
2021/07/28 01:43:42;;;;;;;3.33;1.70;;;;;;;24.41;48.25;100470.00;4959947;28;20041;-67
2021/07/28 01:46:08;;;;;;;4.95;1.55;;;;;;;24.41;48.49;100467.31;4939656;29;20493;-69
2021/07/28 01:48:34;;;;;;;2.05;1.50;;;;;;;24.42;48.34;100465.47;4957162;28;20114;-67
2021/07/28 01:51:01;;;;;;;2.70;1.75;;;;;;;24.41;48.45;100461.16;4956926;28;20035;-67
2021/07/28 01:53:27;;;;;;;3.20;1.75;;;;;;;24.41;48.31;100463.81;4957407;28;20071;-67
2021/07/28 01:55:54;;;;;;;2.70;1.60;;;;;;;24.41;48.33;100467.31;4955864;28;20043;-68
2021/07/28 01:58:20;;;;;;;3.42;1.42;;;;;;;24.40;48.38;100460.34;4957049;28;20042;-67
2021/07/28 02:00:47;;;;;;;2.47;1.67;;;;;;;24.40;48.32;100456.84;4953359;28;20724;-68
2021/07/28 02:03:12;;;;;;;5.15;1.63;;;;;;;24.40;48.30;100446.94;4965969;28;20794;-77
2021/07/28 02:05:40;;;;;;;2.65;1.70;;;;;;;24.40;48.22;100454.97;4964301;28;20150;-69
2021/07/28 02:08:10;;;;;;;2.88;1.42;;;;;;;24.40;48.03;100443.44;4968297;28;20490;-68
2021/07/28 02:10:38;;;;;;;3.80;1.50;;;;;;;24.40;48.36;100446.13;4957988;28;20039;-66
2021/07/28 02:13:04;;;;;;;3.35;1.85;;;;;;;24.40;48.05;100435.38;4962452;28;20126;-66
2021/07/28 02:15:32;;;;;;;2.47;1.60;;;;;;;24.39;48.37;100429.22;4957288;28;20505;-66
2021/07/28 02:17:58;;;;;;;3.13;1.80;;;;;;;24.39;48.33;100434.56;4958020;28;20038;-66
2021/07/28 02:20:25;;;;;;;3.00;1.50;;;;;;;24.39;48.30;100431.91;4957696;28;20191;-67
2021/07/28 02:22:51;;;;;;;2.72;1.50;;;;;;;24.38;48.43;100426.78;4961915;28;20042;-67
2021/07/28 02:25:17;;;;;;;3.25;1.70;;;;;;;24.38;48.25;100422.22;4942251;29;20036;-68
2021/07/28 02:27:43;;;;;;;2.70;1.50;;;;;;;24.40;48.21;100419.31;4941871;28;20035;-70
2021/07/28 02:30:10;;;;;;;2.75;1.60;;;;;;;24.39;48.28;100423.84;4954644;28;20031;-66
2021/07/28 02:32:36;;;;;;;3.10;1.85;;;;;;;24.39;48.30;100417.69;4953033;29;20039;-67
2021/07/28 02:35:02;;;;;;;3.53;1.70;;;;;;;24.38;47.90;100416.88;4953635;28;20039;-69
2021/07/28 02:37:27;;;;;;;2.08;1.55;;;;;;;24.38;47.90;100411.50;4954606;28;20036;-66
2021/07/28 02:39:53;;;;;;;1.95;1.48;;;;;;;24.38;48.23;100408.00;4954680;28;20091;-69
2021/07/28 02:42:18;;;;;;;2.00;1.40;;;;;;;24.37;48.05;100412.56;4955476;28;20366;-67
2021/07/28 02:44:44;;;;;;;3.05;1.70;;;;;;;24.37;47.95;100407.19;4953917;28;20046;-66
2021/07/28 02:47:10;;;;;;;2.90;2.00;;;;;;;24.39;47.95;100410.44;4939352;28;20034;-66
2021/07/28 02:49:36;;;;;;;2.60;1.60;;;;;;;24.38;47.96;100403.47;4954035;28;20043;-71
2021/07/28 02:52:02;;;;;;;2.30;1.40;;;;;;;24.37;47.93;100401.03;4951824;28;20066;-66
2021/07/28 02:54:27;;;;;;;3.28;1.67;;;;;;;24.38;47.97;100402.66;4952680;28;20114;-66
2021/07/28 02:56:53;;;;;;;3.33;1.42;;;;;;;24.36;47.98;100397.53;4952048;29;20489;-68
2021/07/28 02:59:18;;;;;;;3.50;1.70;;;;;;;24.37;47.75;100406.38;4925193;29;20042;-67
2021/07/28 03:01:43;;;;;;;2.33;1.60;;;;;;;24.36;47.93;100397.53;4929563;29;20035;-66
2021/07/28 03:04:09;;;;;;;3.50;1.70;;;;;;;24.36;47.95;100394.84;4952544;29;20040;-66
2021/07/28 03:06:34;;;;;;;4.97;1.80;;;;;;;24.35;47.87;100395.91;4952101;29;20111;-66
2021/07/28 03:09:00;;;;;;;3.50;1.77;;;;;;;24.35;47.77;100395.91;4951537;28;20232;-66
2021/07/28 03:11:26;;;;;;;2.10;1.50;;;;;;;24.35;47.84;100395.91;4951394;29;20023;-66
2021/07/28 03:13:51;;;;;;;2.83;1.65;;;;;;;24.35;47.78;100392.41;4958691;28;20047;-68
2021/07/28 03:16:17;;;;;;;3.40;1.73;;;;;;;24.35;47.80;100389.72;4951382;28;20035;-68
2021/07/28 03:18:43;;;;;;;1.95;1.35;;;;;;;24.34;47.72;100391.59;4952033;29;20043;-67
2021/07/28 03:21:08;;;;;;;2.30;1.50;;;;;;;24.35;47.84;100393.22;4934025;29;20051;-69
2021/07/28 03:23:34;;;;;;;2.75;1.80;;;;;;;24.34;47.77;100380.88;4934651;29;20508;-66
2021/07/28 03:25:59;;;;;;;2.53;1.50;;;;;;;24.34;47.70;100374.69;4950887;28;20054;-66
2021/07/28 03:28:25;;;;;;;2.15;1.38;;;;;;;24.34;47.90;100374.69;4951985;29;20509;-66
2021/07/28 03:30:51;;;;;;;3.15;1.60;;;;;;;24.33;47.45;100373.88;4934125;29;20044;-66
2021/07/28 03:33:17;;;;;;;2.35;1.70;;;;;;;24.33;47.75;100371.19;4952146;29;20492;-68
2021/07/28 03:35:43;;;;;;;2.58;1.60;;;;;;;24.32;47.80;100369.56;4950876;29;20035;-68
2021/07/28 03:38:12;;;;;;;3.97;1.85;;;;;;;24.32;47.57;100372.25;4950656;28;20038;-66
2021/07/28 03:40:38;;;;;;;1.98;1.50;;;;;;;24.32;47.69;100366.91;4950647;29;20039;-70
2021/07/28 03:43:05;;;;;;;2.15;1.40;;;;;;;24.32;47.73;100366.91;4951083;29;20046;-66
2021/07/28 03:45:30;;;;;;;3.10;1.70;;;;;;;24.32;47.52;100364.22;4950894;29;20035;-68
2021/07/28 03:47:55;;;;;;;2.42;1.48;;;;;;;24.31;47.46;100375.19;4951228;29;20441;-66
2021/07/28 03:50:21;;;;;;;2.05;1.50;;;;;;;24.30;47.61;100368.16;4950998;29;20123;-77
2021/07/28 03:52:46;;;;;;;2.20;1.58;;;;;;;24.30;47.54;100366.31;4950797;29;20055;-69
2021/07/28 03:55:12;;;;;;;2.40;1.42;;;;;;;24.30;47.52;100363.63;4951047;28;20454;-71
2021/07/28 03:57:37;;;;;;;2.92;1.50;;;;;;;24.30;47.76;100360.13;4952516;29;20061;-67
2021/07/28 04:00:04;;;;;;;3.83;1.65;;;;;;;24.30;47.69;100355.59;4950530;29;20524;-69
2021/07/28 04:02:30;;;;;;;3.00;1.60;;;;;;;24.30;47.47;100362.78;4950292;29;20038;-66
2021/07/28 04:04:55;;;;;;;1.90;1.30;;;;;;;24.29;47.74;100355.78;4950903;29;20069;-66
2021/07/28 04:07:21;;;;;;;3.30;1.80;;;;;;;24.29;47.55;100361.13;4950506;29;20079;-66
2021/07/28 04:09:46;;;;;;;2.25;1.40;;;;;;;24.29;47.95;100355.78;4950578;29;20041;-66
2021/07/28 04:12:11;;;;;;;3.92;1.63;;;;;;;24.28;47.49;100352.28;4951084;29;20364;-68
2021/07/28 04:14:37;;;;;;;2.50;1.40;;;;;;;24.28;47.40;100344.25;4950145;28;20733;-68
2021/07/28 04:17:02;;;;;;;3.70;1.45;;;;;;;24.30;47.47;100338.66;4933264;29;20035;-68
2021/07/28 04:19:28;;;;;;;3.38;1.70;;;;;;;24.28;47.39;100341.56;4950882;29;20035;-73
2021/07/28 04:21:53;;;;;;;3.85;1.65;;;;;;;24.28;47.55;100335.38;4949413;28;20058;-66
2021/07/28 04:24:19;;;;;;;4.10;1.17;;;;;;;24.29;47.63;100337.00;4951023;29;20043;-69
2021/07/28 04:26:44;;;;;;;2.75;1.40;;;;;;;24.27;47.61;100331.91;4950005;29;20045;-72
2021/07/28 04:29:10;;;;;;;3.28;1.70;;;;;;;24.28;47.65;100335.38;4950805;29;20036;-68
2021/07/28 04:31:35;;;;;;;3.00;1.25;;;;;;;24.27;47.79;100337.25;4950541;29;20050;-65
2021/07/28 04:34:00;;;;;;;2.53;1.58;;;;;;;24.27;47.46;100329.22;4950807;29;20046;-69
2021/07/28 04:36:26;;;;;;;3.38;1.70;;;;;;;24.27;47.65;100326.53;4950150;29;20043;-71
2021/07/28 04:38:51;;;;;;;3.17;1.60;;;;;;;24.27;47.47;100321.19;4950646;29;20039;-70
2021/07/28 04:41:17;;;;;;;2.65;1.60;;;;;;;24.27;47.69;100320.38;4950759;29;20039;-66
2021/07/28 04:43:42;;;;;;;3.70;1.40;;;;;;;24.26;47.36;100313.38;4950460;29;20062;-70
2021/07/28 04:46:07;;;;;;;2.95;1.45;;;;;;;24.25;47.43;100317.94;4950260;29;20035;-66
2021/07/28 04:48:33;;;;;;;5.00;1.60;;;;;;;24.26;47.44;100316.88;4950450;29;20031;-71
2021/07/28 04:50:59;;;;;;;2.60;1.50;;;;;;;24.26;47.32;100314.19;4950471;29;20035;-68
2021/07/28 04:53:28;;;;;;;2.90;1.63;;;;;;;24.26;47.42;100305.34;4950980;29;20114;-71
2021/07/28 04:55:55;;;;;;;2.55;1.30;;;;;;;24.26;47.28;100308.03;4946168;29;20047;-66
2021/07/28 04:58:20;;;;;;;3.15;1.70;;;;;;;24.25;47.40;100301.03;4950927;29;20046;-67
2021/07/28 05:00:50;;;;;;;2.53;1.33;;;;;;;24.25;47.44;100298.34;4948791;29;20027;-66
2021/07/28 05:03:15;;;;;;;2.53;1.45;;;;;;;24.25;47.47;100295.66;4950673;29;20039;-66
2021/07/28 05:05:41;;;;;;;2.22;1.40;;;;;;;24.23;47.56;100301.28;4950218;29;20050;-66
2021/07/28 05:08:07;;;;;;;2.90;1.35;;;;;;;24.23;47.19;100290.56;4950183;29;20058;-67
2021/07/28 05:10:33;;;;;;;1.90;1.48;;;;;;;24.23;47.15;100290.56;4949560;29;20121;-68
2021/07/28 05:12:58;;;;;;;3.78;1.38;;;;;;;24.22;47.20;100291.59;4917051;29;20031;-68
2021/07/28 05:15:24;;;;;;;1.70;1.20;;;;;;;24.22;47.46;100286.25;4949940;29;20035;-66
2021/07/28 05:17:49;;;;;;;2.97;1.65;;;;;;;24.22;47.32;100286.25;4949618;29;20042;-67
2021/07/28 05:20:16;;;;;;;2.20;1.38;;;;;;;24.21;47.31;100289.97;4950120;29;20042;-67
2021/07/28 05:22:42;;;;;;;2.58;1.30;;;;;;;24.21;47.49;100284.63;4950708;29;20371;-66
2021/07/28 05:25:08;;;;;;;1.95;1.40;;;;;;;24.22;47.45;100288.13;4932618;29;20543;-66
2021/07/28 05:27:33;;;;;;;2.25;1.30;;;;;;;24.22;47.17;100285.44;4949539;29;20409;-66
2021/07/28 05:30:00;;;;;;;2.03;1.15;;;;;;;24.20;47.26;100285.69;4949832;29;20035;-68
2021/07/28 05:32:26;;;;;;;2.78;1.30;;;;;;;24.20;47.14;100289.16;4951581;28;20034;-68
2021/07/28 05:34:51;;;;;;;3.28;1.25;;;;;;;24.20;47.32;100283.81;4953769;29;20043;-67
2021/07/28 05:37:17;;;;;;;4.18;1.30;;;;;;;24.20;46.94;100288.34;4953390;29;20188;-68
2021/07/28 05:39:43;;;;;;;2.95;1.30;;;;;;;24.20;47.17;100285.69;4953580;29;20548;-68
2021/07/28 05:42:08;;;;;;;2.85;1.23;;;;;;;24.20;46.96;100288.34;4953268;29;20118;-69
2021/07/28 05:44:34;;;;;;;2.90;1.10;;;;;;;24.19;46.97;100281.38;4936097;29;20027;-66
2021/07/28 05:46:59;;;;;;;2.47;1.20;;;;;;;24.19;47.39;100284.06;4953545;29;20393;-70
2021/07/28 05:49:25;;;;;;;2.95;1.40;;;;;;;24.19;47.12;100276.00;4953734;29;20035;-66
2021/07/28 05:51:50;;;;;;;2.30;1.50;;;;;;;24.18;47.25;100283.25;4952764;29;20043;-68
2021/07/28 05:54:16;;;;;;;2.45;1.08;;;;;;;24.17;47.21;100278.94;4953377;29;20039;-66
2021/07/28 05:56:41;;;;;;;1.80;1.33;;;;;;;24.18;46.95;100277.06;4953260;29;20836;-66
2021/07/28 05:59:07;;;;;;;2.33;1.27;;;;;;;24.17;46.68;100278.13;4952734;29;20485;-69
2021/07/28 06:01:32;;;;;;;2.25;1.33;;;;;;;24.16;47.08;100277.31;4952112;29;20035;-69
2021/07/28 06:03:57;;;;;;;2.63;1.25;;;;;;;24.15;46.74;100270.31;4953518;29;20039;-66
2021/07/28 06:06:26;;;;;;;1.65;1.15;;;;;;;24.16;46.74;100271.13;4952850;29;20035;-69
2021/07/28 06:08:52;;;;;;;1.88;1.42;;;;;;;24.15;46.61;100264.16;4953230;29;20087;-66
2021/07/28 06:11:17;;;;;;;2.25;1.20;;;;;;;24.14;46.77;100268.69;4951694;29;20106;-72
2021/07/28 06:13:43;;;;;;;3.17;1.35;;;;;;;24.13;46.83;100261.69;4952513;29;20153;-70
2021/07/28 06:16:08;;;;;;;2.83;1.10;;;;;;;24.14;46.71;100262.50;4952603;29;20122;-68
2021/07/28 06:18:34;;;;;;;2.78;1.42;;;;;;;24.13;46.69;100260.88;4952859;29;20042;-68
2021/07/28 06:21:00;;;;;;;3.28;1.30;;;;;;;24.13;46.71;100266.22;4951083;29;20113;-70
2021/07/28 06:23:25;;;;;;;4.05;1.30;;;;;;;24.14;46.97;100262.50;4951965;29;20063;-68
2021/07/28 06:25:51;;;;;;;5.88;1.38;;;;;;;24.14;46.70;100257.13;4951141;29;20142;-68
2021/07/28 06:28:16;;;;;;;2.35;1.25;;;;;;;24.14;46.98;100259.81;4952784;29;20046;-66
2021/07/28 06:30:42;;;;;;;1.95;1.13;;;;;;;24.14;46.92;100257.97;4952481;29;20391;-68
2021/07/28 06:33:07;;;;;;;2.47;1.08;;;;;;;24.15;47.10;100262.28;4953059;29;20507;-69
2021/07/28 06:35:32;;;;;;;2.40;1.13;;;;;;;24.15;47.07;100261.47;4953431;29;20076;-74
2021/07/28 06:37:58;;;;;;;1.65;1.05;;;;;;;24.15;46.95;100266.84;4952983;29;20461;-68
2021/07/28 06:40:23;;;;;;;3.28;1.33;;;;;;;24.14;47.25;100260.66;4952316;29;20106;-69
2021/07/28 06:42:49;;;;;;;2.38;0.90;;;;;;;24.14;47.00;100257.13;4952245;28;20135;-68
2021/07/28 06:45:14;;;;;;;2.13;1.08;;;;;;;24.14;47.03;100257.13;4950238;29;20038;-66
2021/07/28 06:47:40;;;;;;;3.72;1.00;;;;;;;24.13;46.81;100242.94;4952220;29;20046;-68
2021/07/28 06:50:05;;;;;;;4.55;1.42;;;;;;;24.13;46.89;100242.94;4952233;29;20031;-67
2021/07/28 06:52:31;;;;;;;1.40;0.80;;;;;;;24.13;46.89;100240.25;4953094;29;20495;-67
2021/07/28 06:54:56;;;;;;;1.25;0.80;;;;;;;24.13;46.86;100231.41;4952809;29;20070;-65
2021/07/28 06:57:22;;;;;;;1.98;1.00;;;;;;;24.12;47.07;100230.59;4934129;29;20094;-68
2021/07/28 06:59:47;;;;;;;4.53;1.30;;;;;;;24.13;46.83;100228.72;4961938;29;20035;-67
2021/07/28 07:02:13;;;;;;;3.13;1.23;;;;;;;24.13;46.63;100228.72;4937322;29;20039;-68
2021/07/28 07:04:38;;;;;;;2.80;1.15;;;;;;;24.12;46.64;100219.88;4948057;29;20054;-75
2021/07/28 07:07:03;;;;;;;4.00;1.15;;;;;;;24.12;46.61;100227.91;4934729;29;20098;-66
2021/07/28 07:09:29;;;;;;;1.38;0.90;;;;;;;24.13;46.93;100209.97;4945937;29;20040;-66
2021/07/28 07:11:54;;;;;;;3.20;1.00;;;;;;;24.13;46.89;100213.44;4951666;29;20035;-66
2021/07/28 07:14:21;;;;;;;2.42;1.00;;;;;;;24.13;46.98;100215.31;4951434;29;20035;-67
2021/07/28 07:16:47;;;;;;;4.03;1.10;;;;;;;24.13;46.84;100201.91;4951114;29;20038;-68
2021/07/28 07:19:12;;;;;;;7.68;1.10;;;;;;;24.13;46.93;100200.06;4948648;29;20489;-67
2021/07/28 07:21:38;;;;;;;10.68;1.30;;;;;;;24.14;47.07;100200.88;4932626;29;20051;-66
2021/07/28 07:24:04;;;;;;;6.28;1.30;;;;;;;24.14;47.01;100201.72;4931099;29;20039;-66
2021/07/28 07:26:29;;;;;;;5.53;1.25;;;;;;;24.14;47.12;100198.19;4951243;29;20122;-66
2021/07/28 07:28:54;;;;;;;7.95;1.67;;;;;;;24.13;47.08;100191.19;4958534;28;20030;-66
2021/07/28 07:31:20;;;;;;;4.55;1.15;;;;;;;24.12;47.33;100194.94;4918360;29;20050;-68
2021/07/28 07:33:45;;;;;;;6.00;1.20;;;;;;;24.10;47.23;100195.19;4951318;29;20035;-66
2021/07/28 07:36:14;;;;;;;8.68;1.33;;;;;;;24.11;47.00;100198.69;4933316;29;20039;-65
2021/07/28 07:38:40;;;;;;;9.32;1.85;;;;;;;24.06;46.77;100185.19;4933549;29;20046;-69
2021/07/28 07:41:06;;;;;;;5.35;1.75;;;;;;;24.00;46.73;100189.66;4933209;29;20032;-67
2021/07/28 07:43:33;;;;;;;11.32;2.00;;;;;;;23.96;46.36;100190.38;4950971;29;20039;-67
2021/07/28 07:45:59;;;;;;;6.88;1.70;;;;;;;23.90;46.20;100192.97;4946048;29;20047;-66
2021/07/28 07:48:25;;;;;;;3.22;1.85;;;;;;;23.86;46.50;100196.38;4951077;29;20473;-67
2021/07/28 07:50:51;;;;;;;4.45;1.65;;;;;;;23.81;46.44;100201.59;4950817;29;20066;-65
2021/07/28 07:53:18;;;;;;;8.13;1.75;;;;;;;23.76;46.28;100196.16;4951158;29;20178;-66
2021/07/28 07:55:44;;;;;;;5.70;1.77;;;;;;;23.72;46.30;100206.56;4940912;29;20488;-66
2021/07/28 07:58:10;;;;;;;6.25;1.80;;;;;;;23.69;46.02;100203.53;4950920;29;20126;-66
2021/07/28 08:00:35;;;;;;;4.28;1.65;;;;;;;23.65;46.07;100205.88;4949595;29;20094;-66
2021/07/28 08:03:01;;;;;;;5.28;1.30;;;;;;;23.62;45.84;100206.34;4950684;29;20039;-68
2021/07/28 08:05:26;;;;;;;5.80;1.30;;;;;;;23.58;46.03;100211.38;4932255;29;20667;-66
2021/07/28 08:07:53;;;;;;;2.38;1.10;;;;;;;23.56;45.96;100209.94;4949541;29;20389;-66
2021/07/28 08:10:19;;;;;;;2.92;1.10;;;;;;;23.54;45.85;100209.38;4945148;28;20118;-68
2021/07/28 08:12:44;;;;;;;3.35;1.10;;;;;;;23.54;45.88;100209.38;4954868;28;20123;-66
2021/07/28 08:15:09;;;;;;;4.20;1.10;;;;;;;23.54;45.91;100201.34;4950085;29;20040;-71
2021/07/28 08:17:35;;;;;;;3.65;1.10;;;;;;;23.52;46.24;100206.94;4951148;29;20023;-66
2021/07/28 08:20:01;;;;;;;4.25;1.40;;;;;;;23.52;45.95;100200.78;4949962;29;20066;-67
2021/07/28 08:22:27;;;;;;;2.53;1.02;;;;;;;23.52;45.73;100195.41;4951028;29;20071;-66
2021/07/28 08:24:53;;;;;;;3.08;1.00;;;;;;;23.49;45.63;100196.69;4950900;29;20061;-69
2021/07/28 08:27:18;;;;;;;4.53;1.50;;;;;;;23.47;45.78;100197.97;4950884;29;20388;-68
2021/07/28 08:29:44;;;;;;;4.40;1.17;;;;;;;23.46;45.86;100197.16;4950039;29;20325;-67
2021/07/28 08:32:09;;;;;;;3.05;1.20;;;;;;;23.48;46.12;100188.91;4951212;29;20039;-66
2021/07/28 08:34:34;;;;;;;2.55;0.98;;;;;;;23.49;45.73;100182.50;4950825;29;20035;-66
2021/07/28 08:37:00;;;;;;;2.88;1.10;;;;;;;23.51;45.75;100188.41;4959475;28;20031;-66
2021/07/28 08:39:26;;;;;;;4.30;1.38;;;;;;;23.52;45.87;100180.16;4950922;29;20043;-66
2021/07/28 08:41:53;;;;;;;3.55;1.20;;;;;;;23.54;45.62;100177.25;4932356;29;20035;-68
2021/07/28 08:44:21;;;;;;;4.28;1.38;;;;;;;23.55;45.66;100168.16;4950447;29;20043;-68
2021/07/28 08:46:49;;;;;;;3.78;1.00;;;;;;;23.55;45.85;100170.84;4950220;29;20118;-66
2021/07/28 08:49:16;;;;;;;3.67;1.00;;;;;;;23.54;45.64;100167.34;4950563;29;20130;-66
2021/07/28 08:51:43;;;;;;;2.10;1.02;;;;;;;23.54;45.50;100171.91;4950106;29;20065;-70
2021/07/28 08:54:09;;;;;;;2.15;1.05;;;;;;;23.53;45.37;100163.06;4946254;29;20142;-67
2021/07/28 08:56:39;;;;;;;5.35;0.90;;;;;;;23.53;45.30;100164.91;4950041;29;20039;-66
2021/07/28 08:59:05;;;;;;;1.88;0.90;;;;;;;23.53;45.13;100163.06;4953932;28;20091;-69
2021/07/28 09:01:30;;;;;;;2.05;0.90;;;;;;;23.53;45.13;100165.72;4949500;29;20051;-67
2021/07/28 09:03:56;;;;;;;1.63;0.85;;;;;;;23.55;45.02;100168.16;4950657;29;20460;-66
2021/07/28 09:06:28;;;;;;;2.08;0.75;;;;;;;23.54;44.84;100161.19;4949780;28;20541;-68
2021/07/28 09:09:04;;;;;;;3.42;1.15;;;;;;;23.52;44.89;100165.97;4954097;29;20477;-66
2021/07/28 09:11:29;;;;;;;4.35;0.82;;;;;;;23.52;45.13;100155.25;4953696;29;20516;-66
2021/07/28 09:13:56;;;;;;;2.10;1.00;;;;;;;23.51;44.67;100149.09;4954132;29;20114;-66
2021/07/28 09:16:22;;;;;;;2.08;1.00;;;;;;;23.49;45.02;100153.84;4953994;29;20178;-68
2021/07/28 09:18:50;;;;;;;1.40;0.80;;;;;;;23.50;44.82;100147.44;4954177;29;20043;-66
2021/07/28 09:21:19;;;;;;;1.80;1.10;;;;;;;23.50;44.53;100138.59;4953392;28;20051;-66
2021/07/28 09:23:45;;;;;;;1.40;0.80;;;;;;;23.52;44.56;100139.19;4954279;29;20028;-70
2021/07/28 09:26:50;;;;;;;3.55;0.90;;;;;;;23.49;44.56;100145.00;4952929;29;20489;-66
2021/07/28 09:29:27;;;;;;;1.85;0.88;;;;;;;23.52;44.91;100140.00;4945285;29;20035;-66
2021/07/28 09:31:56;;;;;;;3.35;0.90;;;;;;;23.52;44.92;100141.88;4953240;29;20039;-68
2021/07/28 09:34:21;;;;;;;3.17;0.90;;;;;;;23.52;44.70;100145.38;4953729;29;20212;-67
2021/07/28 09:36:57;;;;;;;1.58;0.73;;;;;;;23.50;44.63;100141.28;4953745;29;20165;-69
2021/07/28 09:39:28;;;;;;;3.00;0.90;;;;;;;23.52;44.52;100134.66;4953538;29;20042;-66
2021/07/28 09:41:56;;;;;;;2.20;1.00;;;;;;;23.54;44.75;100134.41;4953005;29;20031;-66
2021/07/28 09:44:33;;;;;;;2.28;0.82;;;;;;;23.51;44.80;100137.53;4953190;29;20323;-68
2021/07/28 09:47:06;;;;;;;1.73;0.85;;;;;;;23.51;44.48;100135.72;4935987;29;20051;-66
2021/07/28 09:49:32;;;;;;;3.80;0.90;;;;;;;23.52;44.47;100121.28;4953501;29;20178;-66
2021/07/28 09:51:57;;;;;;;2.78;1.00;;;;;;;23.52;44.41;100147.22;4953492;29;20035;-66
2021/07/28 09:54:29;;;;;;;1.73;0.90;;;;;;;23.49;44.67;100148.50;4952996;29;20118;-68
2021/07/28 09:56:55;;;;;;;3.33;1.05;;;;;;;23.49;44.93;100153.03;4952946;29;20392;-66
2021/07/28 09:59:22;;;;;;;2.47;0.80;;;;;;;23.47;45.45;100158.63;4952882;29;20517;-68
2021/07/28 10:01:48;;;;;;;3.13;1.10;;;;;;;23.45;45.45;100159.94;4952050;29;20225;-66
2021/07/28 10:04:16;;;;;;;3.00;1.10;;;;;;;23.43;45.31;100154.81;4953265;29;20107;-67
2021/07/28 10:06:43;;;;;;;2.50;0.85;;;;;;;23.43;45.74;100160.16;4952827;29;20051;-66
2021/07/28 10:09:11;;;;;;;1.52;0.90;;;;;;;23.42;46.08;100163.09;4953324;29;20035;-66
2021/07/28 10:11:43;;;;;;;3.15;0.70;;;;;;;23.42;45.92;100165.75;4952105;29;20027;-66
2021/07/28 10:14:10;;;;;;;2.80;0.82;;;;;;;23.42;46.03;100169.25;4952808;29;20034;-68
2021/07/28 10:16:36;;;;;;;1.42;0.85;;;;;;;23.41;46.37;100172.16;4952722;29;20027;-66
2021/07/28 10:19:04;;;;;;;1.50;0.70;;;;;;;23.40;46.13;100176.72;4951587;28;20525;-73
2021/07/28 10:21:34;;;;;;;2.40;0.80;;;;;;;23.40;46.50;100186.59;4952085;28;20062;-66
2021/07/28 10:24:01;;;;;;;2.78;0.70;;;;;;;23.41;46.29;100190.91;4952128;29;20114;-66
2021/07/28 10:26:28;;;;;;;1.88;0.80;;;;;;;23.41;46.34;100189.03;4952346;29;20122;-67
2021/07/28 10:28:54;;;;;;;1.67;0.73;;;;;;;23.42;46.57;100179.97;4952452;29;20523;-66
2021/07/28 10:31:22;;;;;;;2.58;0.80;;;;;;;23.43;46.66;100178.91;4952296;29;20055;-73
2021/07/28 10:33:55;;;;;;;2.35;0.65;;;;;;;23.42;46.35;100171.94;4961895;28;20058;-66
2021/07/28 10:36:43;;;;;;;2.55;0.70;;;;;;;23.44;46.63;100177.84;4952602;29;20066;-67
2021/07/28 10:39:08;;;;;;;1.25;0.70;;;;;;;23.43;46.89;100175.41;4952358;29;20374;-68
2021/07/28 10:41:36;;;;;;;1.77;1.17;;;;;;;23.42;47.11;100168.44;4951567;29;20039;-66
2021/07/28 10:44:20;;;;;;;0.90;0.70;;;;;;;23.38;46.82;100167.28;4952396;29;20031;-69
2021/07/28 10:47:05;;;;;;;2.97;0.70;;;;;;;23.37;46.76;100173.69;4952133;29;20039;-66
2021/07/28 10:49:34;;;;;;;3.85;0.70;;;;;;;23.40;46.73;100176.72;4938442;29;20039;-67
2021/07/28 10:52:01;;;;;;;2.35;0.70;;;;;;;23.40;47.02;100165.19;4952325;29;20074;-66
2021/07/28 10:54:45;;;;;;;4.43;1.25;;;;;;;23.37;47.12;100166.50;4952543;29;20036;-67
2021/07/28 10:57:54;;;;;;;2.10;0.93;;;;;;;23.37;46.86;100166.50;4951769;29;20050;-65
2021/07/28 11:00:40;;;;;;;13.05;1.38;;;;;;;23.38;47.00;100175.31;4936986;29;20053;-68
2021/07/28 11:03:08;;;;;;;8.38;1.10;;;;;;;23.41;47.08;100172.16;4951736;29;20035;-66
2021/07/28 11:05:37;;;;;;;3.58;0.80;;;;;;;23.42;47.23;100176.47;4952480;29;20039;-66
2021/07/28 11:08:03;;;;;;;4.20;0.80;;;;;;;23.43;46.50;100183.44;4951888;29;20035;-72
2021/07/28 11:10:30;;;;;;;1.67;0.75;;;;;;;23.43;47.03;100183.44;4951769;29;20034;-67
2021/07/28 11:12:55;;;;;;;2.40;0.90;;;;;;;23.43;46.70;100194.16;4951909;29;20062;-67
2021/07/28 11:15:20;;;;;;;5.10;1.20;;;;;;;23.42;46.71;100190.66;4951154;29;20059;-66
2021/07/28 11:17:51;;;;;;;4.32;1.20;;;;;;;23.39;47.09;100177.75;4951742;29;20038;-67
2021/07/28 11:20:37;;;;;;;6.85;0.95;;;;;;;23.37;47.12;100177.19;4934341;29;20829;-67
2021/07/28 11:23:21;;;;;;;3.85;0.95;;;;;;;23.38;47.33;100188.72;4951278;29;20079;-67
2021/07/28 11:25:51;;;;;;;2.45;0.85;;;;;;;23.42;47.09;100184.50;4941641;29;20046;-66
2021/07/28 11:28:19;;;;;;;3.63;0.80;;;;;;;23.42;47.29;100196.03;4950862;29;20066;-67